createdAt,value
2023-12-24T00:01:02.194Z,90526.84
2023-12-24T00:09:45.960Z,90510.80
2023-12-24T00:18:12.307Z,90517.88
2023-12-24T00:26:36.871Z,90513.53
2023-12-24T00:35:00.627Z,90496.11
2023-12-24T00:43:25.704Z,90498.11
2023-12-24T00:51:53.245Z,90480.58
2023-12-24T01:00:19.159Z,90468.98
2023-12-24T01:08:44.804Z,90480.27
2023-12-24T01:17:10.061Z,90490.02
2023-12-24T01:25:34.891Z,90508.55
2023-12-24T01:34:00.122Z,90503.43
2023-12-24T01:42:25.323Z,90487.45
2023-12-24T01:50:52.272Z,90473.57
2023-12-24T01:59:17.762Z,90470.89
2023-12-24T02:07:44.553Z,90426.64
2023-12-24T02:16:11.594Z,90366.86
2023-12-24T02:24:36.917Z,90302.49
2023-12-24T02:33:08.036Z,90239.46
2023-12-24T02:41:34.197Z,90185.04
2023-12-24T02:49:59.325Z,90113.61
2023-12-24T02:58:24.765Z,90068.28
2023-12-24T03:06:51.905Z,90066.99
2023-12-24T03:15:19.704Z,90061.65
2023-12-24T03:23:44.219Z,90031.56
2023-12-24T03:32:10.527Z,90011.88
2023-12-24T03:40:37.949Z,89997.88
2023-12-24T03:49:06.209Z,89974.90
2023-12-24T03:57:31.751Z,89932.13
2023-12-24T04:05:55.756Z,89941.44
2023-12-24T04:14:21.308Z,89955.69
2023-12-24T04:22:45.844Z,89944.89
2023-12-24T04:31:11.543Z,89921.81
2023-12-24T04:39:38.722Z,89894.43
2023-12-24T04:48:04.984Z,89861.20
2023-12-24T04:56:33.370Z,89797.10
2023-12-24T05:05:01.061Z,89732.92
2023-12-24T05:13:26.020Z,89706.85
2023-12-24T05:21:51.753Z,89702.65
2023-12-24T05:30:17.671Z,89673.20
2023-12-24T05:38:48.654Z,89659.66
2023-12-24T05:47:13.691Z,89656.21
2023-12-24T05:55:38.805Z,89624.10
2023-12-24T06:04:04.965Z,89609.45
2023-12-24T06:12:31.942Z,89608.67
2023-12-24T06:20:56.981Z,89585.80
2023-12-24T06:29:22.082Z,89565.61
2023-12-24T06:37:47.601Z,89597.84
2023-12-24T06:46:15.377Z,89637.58
2023-12-24T06:54:39.630Z,89651.99
2023-12-24T07:03:04.645Z,89691.92
2023-12-24T07:11:30.407Z,89733.84
2023-12-24T07:19:55.982Z,89761.46
2023-12-24T07:28:21.310Z,89805.00
2023-12-24T07:36:45.727Z,89866.33
2023-12-24T07:45:13.545Z,89901.88
2023-12-24T07:53:39.174Z,89930.23
2023-12-24T08:02:06.707Z,89989.86
2023-12-24T08:10:32.847Z,90082.99
2023-12-24T08:18:57.512Z,90124.52
2023-12-24T08:27:24.436Z,90153.42
2023-12-24T08:35:48.894Z,90206.91
2023-12-24T08:44:14.158Z,90273.45
2023-12-24T08:52:41.407Z,90313.41
2023-12-24T09:01:06.662Z,90331.48
2023-12-24T09:09:30.959Z,90387.98
2023-12-24T09:17:57.202Z,90438.40
2023-12-24T09:26:21.617Z,90467.84
2023-12-24T09:34:46.769Z,90526.80
2023-12-24T09:43:16.266Z,90602.03
2023-12-24T09:51:43.436Z,90642.76
2023-12-24T10:00:11.448Z,90719.96
2023-12-24T10:08:44.060Z,90794.77
2023-12-24T10:17:08.824Z,90805.63
2023-12-24T10:25:37.637Z,90786.59
2023-12-24T10:34:03.862Z,90810.21
2023-12-24T10:42:31.215Z,90837.19
2023-12-24T10:50:57.195Z,90813.63
2023-12-24T11:00:16.228Z,90825.41
2023-12-24T11:08:39.604Z,90863.15
2023-12-24T11:17:07.377Z,90879.27
2023-12-24T11:25:51.855Z,90922.10
2023-12-24T11:34:33.347Z,90968.55
2023-12-24T11:43:02.862Z,90989.96
2023-12-24T11:51:30.815Z,91020.60
2023-12-24T11:59:56.253Z,91027.73
2023-12-24T12:08:21.220Z,90977.34
2023-12-24T12:16:46.335Z,90950.74
2023-12-24T12:25:12.195Z,90974.27
2023-12-24T12:33:39.665Z,90984.11
2023-12-24T12:42:05.189Z,90967.35
2023-12-24T12:50:33.845Z,90972.32
2023-12-24T12:58:58.834Z,91012.42
2023-12-24T13:07:30.911Z,90990.89
2023-12-24T13:16:09.649Z,90962.55
2023-12-24T13:24:37.268Z,90966.05
2023-12-24T13:33:03.266Z,90962.02
2023-12-24T13:41:27.586Z,90959.69
2023-12-24T13:49:52.057Z,90929.95
2023-12-24T13:58:16.935Z,90879.59
2023-12-24T14:06:42.670Z,90834.25
2023-12-24T14:15:27.288Z,90801.48
2023-12-24T14:23:54.178Z,90753.11
2023-12-24T14:32:17.795Z,90701.52
2023-12-24T14:40:43.254Z,90639.61
2023-12-24T14:49:09.359Z,90611.27
2023-12-24T14:57:34.890Z,90623.77
2023-12-24T15:06:01.514Z,90621.65
2023-12-24T15:14:26.882Z,90603.83
2023-12-24T15:22:52.381Z,90608.16
2023-12-24T15:31:18.385Z,90628.61
2023-12-24T15:39:45.978Z,90631.70
2023-12-24T15:48:12.265Z,90606.11
2023-12-24T15:56:37.574Z,90599.64
2023-12-24T16:05:01.918Z,90612.72
2023-12-24T16:13:26.630Z,90628.86
2023-12-24T16:22:00.314Z,90614.10
2023-12-24T16:30:27.583Z,90605.95
2023-12-24T16:38:55.833Z,90619.64
2023-12-24T16:47:23.877Z,90614.67
2023-12-24T16:55:48.055Z,90603.42
2023-12-24T17:04:15.688Z,90608.53
2023-12-24T17:12:55.549Z,90624.59
2023-12-24T17:21:28.127Z,90621.50
2023-12-24T17:29:55.714Z,90609.00
2023-12-24T17:38:27.879Z,90631.51
2023-12-24T17:46:55.407Z,90673.63
2023-12-24T17:55:29.404Z,90703.63
2023-12-24T18:04:01.553Z,90713.70
2023-12-24T18:12:34.303Z,90736.53
2023-12-24T18:21:02.411Z,90759.64
2023-12-24T18:29:32.996Z,90762.78
2023-12-24T18:38:01.759Z,90746.52
2023-12-24T18:46:31.539Z,90752.81
2023-12-24T18:54:57.981Z,90780.50
2023-12-24T19:03:22.266Z,90804.27
2023-12-24T19:11:46.266Z,90804.54
2023-12-24T19:20:11.327Z,90823.91
2023-12-24T19:28:35.983Z,90873.70
2023-12-24T19:37:02.216Z,90926.02
2023-12-24T19:45:27.769Z,90972.52
2023-12-24T19:53:52.773Z,91042.85
2023-12-24T20:02:19.860Z,91117.50
2023-12-24T20:10:43.828Z,91179.65
2023-12-24T20:19:08.558Z,91245.66
2023-12-24T20:27:33.366Z,91319.89
2023-12-24T20:35:57.392Z,91424.35
2023-12-24T20:44:22.726Z,91532.19
2023-12-24T20:52:46.377Z,91647.53
2023-12-24T21:01:20.212Z,91790.47
2023-12-24T21:09:45.273Z,91945.91
2023-12-24T21:18:10.195Z,92094.79
2023-12-24T21:26:34.688Z,92209.27
2023-12-24T21:35:00.739Z,92292.13
2023-12-24T21:43:25.580Z,92347.55
2023-12-24T21:51:54.547Z,92416.79
2023-12-24T22:00:21.190Z,92477.60
2023-12-24T22:08:46.527Z,92527.58
2023-12-24T22:17:10.431Z,92565.50
2023-12-24T22:25:35.928Z,92607.20
2023-12-24T22:34:01.348Z,92639.08
2023-12-24T22:42:24.991Z,92669.70
2023-12-24T22:50:49.310Z,92699.13
2023-12-24T22:59:15.380Z,92729.38
2023-12-24T23:07:41.108Z,92764.64
2023-12-24T23:16:05.065Z,92793.98
2023-12-24T23:24:29.601Z,92798.74
2023-12-24T23:32:55.274Z,92808.10
2023-12-24T23:41:19.908Z,92831.10
2023-12-24T23:49:43.448Z,92852.34
2023-12-24T23:58:08.421Z,92878.83
